Time;durP1;ratioP1;P1;durP2;ratioP2;P2;SDS_P1;SDS_P2;PMS_P1;PMS_P2;Temp;Humidity;BMP_temperature;BMP_pressure;BME280_temperature;BME280_humidity;BME280_pressure;Samples;Min_cycle;Max_cycle;Signal;HPM_P1;HPM_P2
2023/07/19 00:00:38;;;;;;;;;;;;;;;;;;5077703;28;19958;-69
2023/07/19 00:03:05;;;;;;;;;;;;;;;;;;5079838;28;20018;-69
2023/07/19 00:05:32;;;;;;;;;;;;;;;;;;5075745;28;20023;-69
2023/07/19 00:08:00;;;;;;;;;;;;;;;;;;5078775;28;20058;-69
2023/07/19 00:10:27;;;;;;;;;;;;;;;;;;5081945;28;19925;-70
2023/07/19 00:12:54;;;;;;;;;;;;;;;;;;5091434;28;20016;-69
2023/07/19 00:15:21;;;;;;;;;;;;;;;;;;5079646;28;20655;-69
2023/07/19 00:17:47;;;;;;;;;;;;;;;;;;5077695;28;19978;-69
2023/07/19 00:20:15;;;;;;;;;;;;;;;;;;5077641;28;19929;-69
2023/07/19 00:22:42;;;;;;;;;;;;;;;;;;5076932;28;19935;-69
2023/07/19 00:25:09;;;;;;;;;;;;;;;;;;5077925;28;19924;-70
2023/07/19 00:27:36;;;;;;;;;;;;;;;;;;5082888;28;19924;-70
2023/07/19 00:30:03;;;;;;;;;;;;;;;;;;5085093;28;20361;-69
2023/07/19 00:32:30;;;;;;;;;;;;;;;;;;5085982;28;19969;-69
2023/07/19 00:34:57;;;;;;;;;;;;;;;;;;5077888;28;20002;-70
2023/07/19 00:37:24;;;;;;;;;;;;;;;;;;5077806;28;20766;-69
2023/07/19 00:39:51;;;;;;;;;;;;;;;;;;5080121;28;20014;-69
2023/07/19 00:42:17;;;;;;;;;;;;;;;;;;5078852;28;20011;-69
2023/07/19 00:44:45;;;;;;;;;;;;;;;;;;5080072;28;19924;-69
2023/07/19 00:47:12;;;;;;;;;;;;;;;;;;5081224;28;19963;-69
2023/07/19 00:49:40;;;;;;;;;;;;;;;;;;5083322;28;19982;-69
2023/07/19 00:52:07;;;;;;;;;;;;;;;;;;5081364;28;20291;-70
2023/07/19 00:54:34;;;;;;;;;;;;;;;;;;5081210;28;19950;-68
2023/07/19 00:57:01;;;;;;;;;;;;;;;;;;5083684;28;19924;-68
2023/07/19 00:59:28;;;;;;;;;;;;;;;;;;5083592;28;19964;-69
2023/07/19 01:01:55;;;;;;;;;;;;;;;;;;5085212;28;19924;-68
2023/07/19 01:04:24;;;;;;;;;;;;;;;;;;5086077;28;20027;-68
2023/07/19 01:06:51;;;;;;;;;;;;;;;;;;5081340;28;20430;-68
2023/07/19 01:09:18;;;;;;;;;;;;;;;;;;5083380;28;20007;-68
2023/07/19 01:11:45;;;;;;;;;;;;;;;;;;5082361;28;19931;-68
2023/07/19 01:14:12;;;;;;;;;;;;;;;;;;5080928;28;20426;-68
2023/07/19 01:16:39;;;;;;;;;;;;;;;;;;5089329;28;19930;-68
2023/07/19 01:19:06;;;;;;;;;;;;;;;;;;5091046;28;19923;-69
2023/07/19 01:21:33;;;;;;;;;;;;;;;;;;5081875;28;20019;-70
2023/07/19 01:24:00;;;;;;;;;;;;;;;;;;5080244;28;20021;-69
2023/07/19 01:26:27;;;;;;;;;;;;;;;;;;5082570;28;20039;-68
2023/07/19 01:28:54;;;;;;;;;;;;;;;;;;5090023;28;20027;-68
2023/07/19 01:31:21;;;;;;;;;;;;;;;;;;5085488;28;22050;-68
2023/07/19 01:33:48;;;;;;;;;;;;;;;;;;5079526;28;20371;-67
2023/07/19 01:36:15;;;;;;;;;;;;;;;;;;5081456;28;20020;-68
2023/07/19 01:38:42;;;;;;;;;;;;;;;;;;5080332;28;19927;-67
2023/07/19 01:41:09;;;;;;;;;;;;;;;;;;5081511;28;20007;-67
2023/07/19 01:43:36;;;;;;;;;;;;;;;;;;5083038;28;19935;-68
2023/07/19 01:46:03;;;;;;;;;;;;;;;;;;5079683;28;19931;-68
2023/07/19 01:48:30;;;;;;;;;;;;;;;;;;5083421;28;20734;-68
2023/07/19 01:50:57;;;;;;;;;;;;;;;;;;5082284;28;20398;-68
2023/07/19 01:53:24;;;;;;;;;;;;;;;;;;5079330;28;19970;-68
2023/07/19 01:55:51;;;;;;;;;;;;;;;;;;5079447;28;20022;-68
2023/07/19 01:58:18;;;;;;;;;;;;;;;;;;5082702;28;19924;-69
2023/07/19 02:00:45;;;;;;;;;;;;;;;;;;5078546;28;19932;-68
2023/07/19 02:03:12;;;;;;;;;;;;;;;;;;5078999;28;19934;-68
2023/07/19 02:05:39;;;;;;;;;;;;;;;;;;5082858;28;19932;-67
2023/07/19 02:08:06;;;;;;;;;;;;;;;;;;5080751;28;19924;-68
2023/07/19 02:10:33;;;;;;;;;;;;;;;;;;5073688;28;19925;-68
2023/07/19 02:12:59;;;;;;;;;;;;;;;;;;5083205;28;20349;-68
2023/07/19 02:15:26;;;;;;;;;;;;;;;;;;5081157;28;20298;-68
2023/07/19 02:17:54;;;;;;;;;;;;;;;;;;5082087;28;20383;-67
2023/07/19 02:20:20;;;;;;;;;;;;;;;;;;5085078;28;19969;-67
2023/07/19 02:22:48;;;;;;;;;;;;;;;;;;5080103;28;19930;-68
2023/07/19 02:25:15;;;;;;;;;;;;;;;;;;5080930;28;20410;-67
2023/07/19 02:27:41;;;;;;;;;;;;;;;;;;5083344;28;20356;-67
2023/07/19 02:30:08;;;;;;;;;;;;;;;;;;5084097;28;20375;-67
2023/07/19 02:32:35;;;;;;;;;;;;;;;;;;5080289;28;20020;-67
2023/07/19 02:35:02;;;;;;;;;;;;;;;;;;5080018;28;20028;-68
2023/07/19 02:37:29;;;;;;;;;;;;;;;;;;5082104;28;20011;-67
2023/07/19 02:39:56;;;;;;;;;;;;;;;;;;5081676;28;20070;-68
2023/07/19 02:42:23;;;;;;;;;;;;;;;;;;5079737;28;19985;-68
2023/07/19 02:44:50;;;;;;;;;;;;;;;;;;5083279;28;19942;-68
2023/07/19 02:47:17;;;;;;;;;;;;;;;;;;5082476;28;20378;-67
2023/07/19 02:49:44;;;;;;;;;;;;;;;;;;5080822;28;19924;-68
2023/07/19 02:52:11;;;;;;;;;;;;;;;;;;5080695;28;19924;-68
2023/07/19 02:54:38;;;;;;;;;;;;;;;;;;5078689;28;20475;-68
2023/07/19 02:57:05;;;;;;;;;;;;;;;;;;5080266;28;20454;-68
2023/07/19 02:59:32;;;;;;;;;;;;;;;;;;5078403;28;20987;-68
2023/07/19 03:01:59;;;;;;;;;;;;;;;;;;5089062;28;20015;-68
2023/07/19 03:04:26;;;;;;;;;;;;;;;;;;5076660;28;20024;-68
2023/07/19 03:06:53;;;;;;;;;;;;;;;;;;5072659;28;19960;-68
2023/07/19 03:09:20;;;;;;;;;;;;;;;;;;5080121;28;19924;-68
2023/07/19 03:11:47;;;;;;;;;;;;;;;;;;5076262;28;19925;-69
2023/07/19 03:14:14;;;;;;;;;;;;;;;;;;5080309;28;19928;-68
2023/07/19 03:16:42;;;;;;;;;;;;;;;;;;5079216;28;20663;-68
2023/07/19 03:19:09;;;;;;;;;;;;;;;;;;5079163;28;20413;-68
2023/07/19 03:21:36;;;;;;;;;;;;;;;;;;5087361;28;20295;-68
2023/07/19 03:24:03;;;;;;;;;;;;;;;;;;5083516;28;20390;-68
2023/07/19 03:26:30;;;;;;;;;;;;;;;;;;5079195;28;20353;-68
2023/07/19 03:28:57;;;;;;;;;;;;;;;;;;5084848;28;20352;-69
2023/07/19 03:31:24;;;;;;;;;;;;;;;;;;5079682;28;20006;-68
2023/07/19 03:33:51;;;;;;;;;;;;;;;;;;5080582;28;19932;-69
2023/07/19 03:36:18;;;;;;;;;;;;;;;;;;5086045;28;20011;-69
2023/07/19 03:38:45;;;;;;;;;;;;;;;;;;5072748;28;19925;-68
2023/07/19 03:41:12;;;;;;;;;;;;;;;;;;5083475;28;19969;-69
2023/07/19 03:43:39;;;;;;;;;;;;;;;;;;5077459;28;19924;-69
2023/07/19 03:46:06;;;;;;;;;;;;;;;;;;5086516;28;20023;-69
2023/07/19 03:48:35;;;;;;;;;;;;;;;;;;5076603;28;19932;-68
2023/07/19 03:51:02;;;;;;;;;;;;;;;;;;5076500;28;19928;-68
2023/07/19 03:53:29;;;;;;;;;;;;;;;;;;5077101;28;20378;-68
2023/07/19 03:55:56;;;;;;;;;;;;;;;;;;5078986;28;20668;-68
2023/07/19 03:58:24;;;;;;;;;;;;;;;;;;5079248;28;19978;-68
2023/07/19 04:00:51;;;;;;;;;;;;;;;;;;5079402;28;19952;-69
2023/07/19 04:03:18;;;;;;;;;;;;;;;;;;5073264;28;19939;-68
2023/07/19 04:05:45;;;;;;;;;;;;;;;;;;5079840;28;19979;-69
2023/07/19 04:08:12;;;;;;;;;;;;;;;;;;5075851;28;19924;-68
2023/07/19 04:10:39;;;;;;;;;;;;;;;;;;5080813;28;19990;-68
2023/07/19 04:13:06;;;;;;;;;;;;;;;;;;5078642;28;19939;-68
2023/07/19 04:15:33;;;;;;;;;;;;;;;;;;5078056;28;19928;-68
2023/07/19 04:18:00;;;;;;;;;;;;;;;;;;5088221;28;19930;-68
2023/07/19 04:20:27;;;;;;;;;;;;;;;;;;5076960;28;19932;-68
2023/07/19 04:22:54;;;;;;;;;;;;;;;;;;5084029;28;20011;-68
2023/07/19 04:25:24;;;;;;;;;;;;;;;;;;5082798;28;19928;-68
2023/07/19 04:27:51;;;;;;;;;;;;;;;;;;5088510;28;19924;-68
2023/07/19 04:30:18;;;;;;;;;;;;;;;;;;5084298;28;20022;-68
2023/07/19 04:32:45;;;;;;;;;;;;;;;;;;5089475;28;19924;-68
2023/07/19 04:35:12;;;;;;;;;;;;;;;;;;5083369;28;19974;-68
2023/07/19 04:37:40;;;;;;;;;;;;;;;;;;5082032;28;19932;-67
2023/07/19 04:40:07;;;;;;;;;;;;;;;;;;5078115;28;19924;-67
2023/07/19 04:42:34;;;;;;;;;;;;;;;;;;5079715;28;19971;-68
2023/07/19 04:45:01;;;;;;;;;;;;;;;;;;5085677;28;20015;-68
2023/07/19 04:47:28;;;;;;;;;;;;;;;;;;5083329;28;20046;-69
2023/07/19 04:49:55;;;;;;;;;;;;;;;;;;5088222;28;20019;-68
2023/07/19 04:52:22;;;;;;;;;;;;;;;;;;5082618;28;20011;-70
2023/07/19 04:54:49;;;;;;;;;;;;;;;;;;5078340;28;20027;-70
2023/07/19 04:57:16;;;;;;;;;;;;;;;;;;5080739;28;19931;-70
2023/07/19 04:59:43;;;;;;;;;;;;;;;;;;5080818;28;19924;-71
2023/07/19 05:02:10;;;;;;;;;;;;;;;;;;5082461;28;19928;-72
2023/07/19 05:04:37;;;;;;;;;;;;;;;;;;5086486;28;19924;-70
2023/07/19 05:07:04;;;;;;;;;;;;;;;;;;5074476;28;19924;-71
2023/07/19 05:09:31;;;;;;;;;;;;;;;;;;5076515;28;20075;-71
2023/07/19 05:11:58;;;;;;;;;;;;;;;;;;5077359;28;20463;-71
2023/07/19 05:14:26;;;;;;;;;;;;;;;;;;5076127;28;20373;-72
2023/07/19 05:16:53;;;;;;;;;;;;;;;;;;5080556;28;20396;-71
2023/07/19 05:19:20;;;;;;;;;;;;;;;;;;5081798;28;20393;-71
2023/07/19 05:21:47;;;;;;;;;;;;;;;;;;5083142;28;19931;-73
2023/07/19 05:24:14;;;;;;;;;;;;;;;;;;5081015;28;19935;-73
2023/07/19 05:26:41;;;;;;;;;;;;;;;;;;5081832;28;20535;-73
2023/07/19 05:29:09;;;;;;;;;;;;;;;;;;5082174;28;20349;-73
2023/07/19 05:31:36;;;;;;;;;;;;;;;;;;5081423;28;20406;-72
2023/07/19 05:34:03;;;;;;;;;;;;;;;;;;5091648;28;20015;-72
2023/07/19 05:36:30;;;;;;;;;;;;;;;;;;5091673;28;19971;-72
2023/07/19 05:38:57;;;;;;;;;;;;;;;;;;5089224;28;19929;-73
2023/07/19 05:41:24;;;;;;;;;;;;;;;;;;5090386;28;20011;-72
2023/07/19 05:43:53;;;;;;;;;;;;;;;;;;5085935;28;19979;-72
2023/07/19 05:46:20;;;;;;;;;;;;;;;;;;5077942;28;20022;-72
2023/07/19 05:48:47;;;;;;;;;;;;;;;;;;5085097;28;20014;-72
2023/07/19 05:51:14;;;;;;;;;;;;;;;;;;5075014;28;20340;-73
2023/07/19 05:53:41;;;;;;;;;;;;;;;;;;5089149;28;19924;-72
2023/07/19 05:56:08;;;;;;;;;;;;;;;;;;5086930;28;20015;-72
2023/07/19 05:58:34;;;;;;;;;;;;;;;;;;5078736;28;20022;-72
2023/07/19 06:01:02;;;;;;;;;;;;;;;;;;5075049;28;19924;-72
2023/07/19 06:03:29;;;;;;;;;;;;;;;;;;5083500;28;20268;-73
2023/07/19 06:05:56;;;;;;;;;;;;;;;;;;5089303;28;19932;-74
2023/07/19 06:08:23;;;;;;;;;;;;;;;;;;5091686;28;20015;-73
2023/07/19 06:10:51;;;;;;;;;;;;;;;;;;5084416;28;19924;-71
2023/07/19 06:13:18;;;;;;;;;;;;;;;;;;5092374;28;19947;-73
2023/07/19 06:15:45;;;;;;;;;;;;;;;;;;5093133;28;20299;-74
2023/07/19 06:18:12;;;;;;;;;;;;;;;;;;5091911;28;19974;-73
2023/07/19 06:20:39;;;;;;;;;;;;;;;;;;5076709;28;20095;-73
2023/07/19 06:23:06;;;;;;;;;;;;;;;;;;5093680;28;20015;-73
2023/07/19 06:25:33;;;;;;;;;;;;;;;;;;5093468;28;19930;-73
2023/07/19 06:28:00;;;;;;;;;;;;;;;;;;5085530;28;19978;-73
2023/07/19 06:30:27;;;;;;;;;;;;;;;;;;5092898;28;19974;-73
2023/07/19 06:32:54;;;;;;;;;;;;;;;;;;5087018;28;20022;-73
2023/07/19 06:35:21;;;;;;;;;;;;;;;;;;5082566;28;20371;-74
2023/07/19 06:37:48;;;;;;;;;;;;;;;;;;5092993;28;19967;-73
2023/07/19 06:40:15;;;;;;;;;;;;;;;;;;5092813;28;20023;-73
2023/07/19 06:42:42;;;;;;;;;;;;;;;;;;5074180;28;19990;-72
2023/07/19 06:45:09;;;;;;;;;;;;;;;;;;5073758;28;20438;-71
2023/07/19 06:47:36;;;;;;;;;;;;;;;;;;5084014;28;20019;-73
2023/07/19 06:50:03;;;;;;;;;;;;;;;;;;5093444;28;20017;-73
2023/07/19 06:52:30;;;;;;;;;;;;;;;;;;5079845;28;19993;-71
2023/07/19 06:54:57;;;;;;;;;;;;;;;;;;5079788;28;19924;-72
2023/07/19 06:57:24;;;;;;;;;;;;;;;;;;5081954;28;19930;-71
2023/07/19 06:59:51;;;;;;;;;;;;;;;;;;5081018;28;20015;-70
2023/07/19 07:02:18;;;;;;;;;;;;;;;;;;5076960;28;20809;-71
2023/07/19 07:04:45;;;;;;;;;;;;;;;;;;5076608;28;19924;-72
2023/07/19 07:07:14;;;;;;;;;;;;;;;;;;5076576;28;20003;-72
2023/07/19 07:09:41;;;;;;;;;;;;;;;;;;5072816;28;19924;-72
2023/07/19 07:12:09;;;;;;;;;;;;;;;;;;5080728;28;19924;-72
2023/07/19 07:14:36;;;;;;;;;;;;;;;;;;5092944;28;19999;-72
2023/07/19 07:17:03;;;;;;;;;;;;;;;;;;5092827;28;19932;-72
2023/07/19 07:19:30;;;;;;;;;;;;;;;;;;5093123;28;19924;-72
2023/07/19 07:21:57;;;;;;;;;;;;;;;;;;5076505;28;20026;-73
2023/07/19 07:24:24;;;;;;;;;;;;;;;;;;5090178;28;19924;-73
2023/07/19 07:26:51;;;;;;;;;;;;;;;;;;5080082;28;19924;-73
2023/07/19 07:29:18;;;;;;;;;;;;;;;;;;5072410;28;19924;-72
2023/07/19 07:31:45;;;;;;;;;;;;;;;;;;5072700;28;19963;-73
2023/07/19 07:34:12;;;;;;;;;;;;;;;;;;5074301;28;20031;-72
2023/07/19 07:36:39;;;;;;;;;;;;;;;;;;5072565;28;19924;-72
2023/07/19 07:39:06;;;;;;;;;;;;;;;;;;5072777;28;19932;-73
2023/07/19 07:41:34;;;;;;;;;;;;;;;;;;5072120;28;19928;-72
2023/07/19 07:44:01;;;;;;;;;;;;;;;;;;5086256;28;19928;-70
2023/07/19 07:46:29;;;;;;;;;;;;;;;;;;5092781;28;20006;-70
2023/07/19 07:48:59;;;;;;;;;;;;;;;;;;5091379;28;19967;-71
2023/07/19 07:51:26;;;;;;;;;;;;;;;;;;5092421;28;19924;-70
2023/07/19 07:53:53;;;;;;;;;;;;;;;;;;5092176;28;19928;-70
2023/07/19 07:56:20;;;;;;;;;;;;;;;;;;5086142;28;19925;-71
2023/07/19 07:58:47;;;;;;;;;;;;;;;;;;5072504;28;19985;-71
2023/07/19 08:01:14;;;;;;;;;;;;;;;;;;5076033;28;20019;-71
2023/07/19 08:03:41;;;;;;;;;;;;;;;;;;5091779;28;20333;-71
2023/07/19 08:06:08;;;;;;;;;;;;;;;;;;5091385;28;19931;-71
2023/07/19 08:08:35;;;;;;;;;;;;;;;;;;5091940;28;19994;-71
2023/07/19 08:11:02;;;;;;;;;;;;;;;;;;5090990;28;19947;-71
2023/07/19 08:13:29;;;;;;;;;;;;;;;;;;5092473;28;19982;-71
2023/07/19 08:15:56;;;;;;;;;;;;;;;;;;5092012;28;20011;-71
2023/07/19 08:18:23;;;;;;;;;;;;;;;;;;5087622;28;20007;-72
2023/07/19 08:20:50;;;;;;;;;;;;;;;;;;5080672;28;20375;-71
2023/07/19 08:23:17;;;;;;;;;;;;;;;;;;5092174;28;20454;-70
2023/07/19 08:25:44;;;;;;;;;;;;;;;;;;5092023;28;19924;-71
2023/07/19 08:28:11;;;;;;;;;;;;;;;;;;5092114;28;19959;-71
2023/07/19 08:30:38;;;;;;;;;;;;;;;;;;5092237;28;20135;-70
2023/07/19 08:33:08;;;;;;;;;;;;;;;;;;5078696;28;20007;-70
2023/07/19 08:35:35;;;;;;;;;;;;;;;;;;5072237;28;19924;-71
2023/07/19 08:38:02;;;;;;;;;;;;;;;;;;5071817;28;20011;-71
2023/07/19 08:40:29;;;;;;;;;;;;;;;;;;5078091;28;20003;-71
2023/07/19 08:42:56;;;;;;;;;;;;;;;;;;5090696;28;19934;-71
2023/07/19 08:45:23;;;;;;;;;;;;;;;;;;5080779;28;19931;-72
2023/07/19 08:47:50;;;;;;;;;;;;;;;;;;5071881;28;20035;-70
2023/07/19 08:50:17;;;;;;;;;;;;;;;;;;5080589;28;19968;-71
2023/07/19 08:52:44;;;;;;;;;;;;;;;;;;5072241;28;20050;-71
2023/07/19 08:55:11;;;;;;;;;;;;;;;;;;5072243;28;19925;-71
2023/07/19 08:57:39;;;;;;;;;;;;;;;;;;5071993;28;19970;-71
2023/07/19 09:00:06;;;;;;;;;;;;;;;;;;5084459;28;19924;-72
2023/07/19 09:02:32;;;;;;;;;;;;;;;;;;5071615;28;19978;-72
2023/07/19 09:04:59;;;;;;;;;;;;;;;;;;5071114;28;20011;-72
2023/07/19 09:07:27;;;;;;;;;;;;;;;;;;5073471;28;19982;-71
2023/07/19 09:09:53;;;;;;;;;;;;;;;;;;5094847;28;19935;-71
2023/07/19 09:12:21;;;;;;;;;;;;;;;;;;5088667;28;20023;-72
2023/07/19 09:14:48;;;;;;;;;;;;;;;;;;5095541;28;19924;-72
2023/07/19 09:17:15;;;;;;;;;;;;;;;;;;5095223;28;19974;-72
2023/07/19 09:19:41;;;;;;;;;;;;;;;;;;5087935;28;19978;-71
2023/07/19 09:22:09;;;;;;;;;;;;;;;;;;5093822;28;20006;-72
2023/07/19 09:24:36;;;;;;;;;;;;;;;;;;5092182;28;19928;-71
2023/07/19 09:27:03;;;;;;;;;;;;;;;;;;5093830;28;20466;-71
2023/07/19 09:29:30;;;;;;;;;;;;;;;;;;5095164;28;19924;-71
2023/07/19 09:31:57;;;;;;;;;;;;;;;;;;5095464;28;19924;-71
2023/07/19 09:34:24;;;;;;;;;;;;;;;;;;5095251;28;19971;-72
2023/07/19 09:36:51;;;;;;;;;;;;;;;;;;5078703;28;20026;-72
2023/07/19 09:39:18;;;;;;;;;;;;;;;;;;5082360;28;19925;-71
2023/07/19 09:41:46;;;;;;;;;;;;;;;;;;5083430;28;19931;-71
2023/07/19 09:44:15;;;;;;;;;;;;;;;;;;5078052;28;20424;-71
2023/07/19 09:46:42;;;;;;;;;;;;;;;;;;5078989;28;20311;-71
2023/07/19 09:49:09;;;;;;;;;;;;;;;;;;5080891;28;19925;-72
2023/07/19 09:51:36;;;;;;;;;;;;;;;;;;5073824;28;20015;-72
2023/07/19 09:54:03;;;;;;;;;;;;;;;;;;5080995;28;19972;-72
2023/07/19 09:56:30;;;;;;;;;;;;;;;;;;5084766;28;19924;-72
2023/07/19 09:58:57;;;;;;;;;;;;;;;;;;5093028;28;20007;-71
2023/07/19 10:01:24;;;;;;;;;;;;;;;;;;5090336;28;20020;-72
2023/07/19 10:03:51;;;;;;;;;;;;;;;;;;5090069;28;20010;-72
2023/07/19 10:06:18;;;;;;;;;;;;;;;;;;5093515;28;20371;-71
2023/07/19 10:08:45;;;;;;;;;;;;;;;;;;5093706;28;19924;-71
2023/07/19 10:11:12;;;;;;;;;;;;;;;;;;5094331;28;20015;-72
2023/07/19 10:13:39;;;;;;;;;;;;;;;;;;5087099;28;20015;-71
2023/07/19 10:16:06;;;;;;;;;;;;;;;;;;5080214;28;19924;-71
2023/07/19 10:18:33;;;;;;;;;;;;;;;;;;5093588;28;20006;-71
2023/07/19 10:21:01;;;;;;;;;;;;;;;;;;5093762;28;19924;-71
2023/07/19 10:23:30;;;;;;;;;;;;;;;;;;5080312;28;19924;-71
2023/07/19 10:25:57;;;;;;;;;;;;;;;;;;5093468;28;19924;-71
2023/07/19 10:28:24;;;;;;;;;;;;;;;;;;5093479;28;20018;-71
2023/07/19 10:30:50;;;;;;;;;;;;;;;;;;5093757;28;20007;-71
2023/07/19 10:33:17;;;;;;;;;;;;;;;;;;5090643;28;19963;-71
2023/07/19 10:35:44;;;;;;;;;;;;;;;;;;5079667;28;19928;-72
2023/07/19 10:38:11;;;;;;;;;;;;;;;;;;5091055;28;20227;-71
2023/07/19 10:40:38;;;;;;;;;;;;;;;;;;5079874;28;20437;-71
2023/07/19 10:43:05;;;;;;;;;;;;;;;;;;5091680;28;20446;-72
2023/07/19 10:45:32;;;;;;;;;;;;;;;;;;5075910;28;20446;-71
2023/07/19 10:47:59;;;;;;;;;;;;;;;;;;5084167;28;20357;-72
2023/07/19 10:50:26;;;;;;;;;;;;;;;;;;5073227;28;19925;-72
2023/07/19 10:52:53;;;;;;;;;;;;;;;;;;5088560;28;19960;-71
2023/07/19 10:55:20;;;;;;;;;;;;;;;;;;5091456;28;20409;-73
2023/07/19 10:57:47;;;;;;;;;;;;;;;;;;5093538;28;19924;-72
2023/07/19 11:00:14;;;;;;;;;;;;;;;;;;5093383;28;20003;-71
2023/07/19 11:02:41;;;;;;;;;;;;;;;;;;5092680;28;19955;-72
2023/07/19 11:05:08;;;;;;;;;;;;;;;;;;5078606;28;19947;-72
2023/07/19 11:07:35;;;;;;;;;;;;;;;;;;5083096;28;19971;-71
2023/07/19 11:10:02;;;;;;;;;;;;;;;;;;5093314;28;19927;-71
2023/07/19 11:12:30;;;;;;;;;;;;;;;;;;5092456;28;19924;-73
2023/07/19 11:14:58;;;;;;;;;;;;;;;;;;5092128;28;20300;-71
2023/07/19 11:17:25;;;;;;;;;;;;;;;;;;5092695;28;19928;-72
2023/07/19 11:19:53;;;;;;;;;;;;;;;;;;5093157;28;19930;-71
2023/07/19 11:22:20;;;;;;;;;;;;;;;;;;5092157;28;20018;-72
2023/07/19 11:24:48;;;;;;;;;;;;;;;;;;5079705;28;19924;-72
2023/07/19 11:27:15;;;;;;;;;;;;;;;;;;5072218;28;20011;-73
2023/07/19 11:29:42;;;;;;;;;;;;;;;;;;5072987;28;20268;-72
2023/07/19 11:32:09;;;;;;;;;;;;;;;;;;5074549;28;19963;-71
2023/07/19 11:34:36;;;;;;;;;;;;;;;;;;5086052;28;19956;-72
2023/07/19 11:37:03;;;;;;;;;;;;;;;;;;5091829;28;19924;-72
2023/07/19 11:39:30;;;;;;;;;;;;;;;;;;5086653;28;20058;-72
2023/07/19 11:41:57;;;;;;;;;;;;;;;;;;5077680;28;20325;-72
2023/07/19 11:44:24;;;;;;;;;;;;;;;;;;5072199;28;20123;-72
2023/07/19 11:46:52;;;;;;;;;;;;;;;;;;5072063;28;19925;-71
2023/07/19 11:49:19;;;;;;;;;;;;;;;;;;5071650;28;20027;-72
2023/07/19 11:51:46;;;;;;;;;;;;;;;;;;5092129;28;19950;-72
2023/07/19 11:54:14;;;;;;;;;;;;;;;;;;5092769;28;19969;-73
2023/07/19 11:56:41;;;;;;;;;;;;;;;;;;5091425;28;20294;-72
2023/07/19 11:59:08;;;;;;;;;;;;;;;;;;5087233;28;19982;-72
2023/07/19 12:01:35;;;;;;;;;;;;;;;;;;5091399;28;20010;-72
2023/07/19 12:04:02;;;;;;;;;;;;;;;;;;5089496;28;20006;-73
2023/07/19 12:06:29;;;;;;;;;;;;;;;;;;5092357;28;19924;-72
2023/07/19 12:08:56;;;;;;;;;;;;;;;;;;5075493;28;20023;-72
2023/07/19 12:11:23;;;;;;;;;;;;;;;;;;5072200;28;20330;-72
2023/07/19 12:13:50;;;;;;;;;;;;;;;;;;5075120;28;19931;-72
2023/07/19 12:16:17;;;;;;;;;;;;;;;;;;5082551;28;19930;-72
2023/07/19 12:18:44;;;;;;;;;;;;;;;;;;5090955;28;19932;-72
2023/07/19 12:21:11;;;;;;;;;;;;;;;;;;5090554;28;20005;-72
2023/07/19 12:23:38;;;;;;;;;;;;;;;;;;5092267;28;19928;-72
2023/07/19 12:26:05;;;;;;;;;;;;;;;;;;5092435;28;20295;-72
2023/07/19 12:28:32;;;;;;;;;;;;;;;;;;5091542;28;19934;-73
2023/07/19 12:31:00;;;;;;;;;;;;;;;;;;5076373;28;19932;-72
2023/07/19 12:33:27;;;;;;;;;;;;;;;;;;5088928;28;19924;-72
2023/07/19 12:35:54;;;;;;;;;;;;;;;;;;5092070;28;19924;-72
2023/07/19 12:38:21;;;;;;;;;;;;;;;;;;5090645;28;19924;-72
2023/07/19 12:40:47;;;;;;;;;;;;;;;;;;5086801;28;20027;-72
2023/07/19 12:43:15;;;;;;;;;;;;;;;;;;5094189;28;19930;-72
2023/07/19 12:45:42;;;;;;;;;;;;;;;;;;5095639;28;19924;-72
2023/07/19 12:48:10;;;;;;;;;;;;;;;;;;5091805;28;19931;-72
2023/07/19 12:50:37;;;;;;;;;;;;;;;;;;5092600;28;20027;-73
2023/07/19 12:53:05;;;;;;;;;;;;;;;;;;5092061;28;20383;-72
2023/07/19 12:55:32;;;;;;;;;;;;;;;;;;5095775;28;19955;-72
2023/07/19 12:57:59;;;;;;;;;;;;;;;;;;5089309;28;20007;-72
2023/07/19 13:00:26;;;;;;;;;;;;;;;;;;5074891;28;19974;-76
2023/07/19 13:02:53;;;;;;;;;;;;;;;;;;5074058;28;20007;-76
2023/07/19 13:05:20;;;;;;;;;;;;;;;;;;5075248;28;19924;-76
2023/07/19 13:07:47;;;;;;;;;;;;;;;;;;5075283;28;19926;-76
2023/07/19 13:10:14;;;;;;;;;;;;;;;;;;5074779;28;20379;-76
2023/07/19 13:12:42;;;;;;;;;;;;;;;;;;5091795;28;19963;-76
2023/07/19 13:15:09;;;;;;;;;;;;;;;;;;5094467;28;19931;-73
2023/07/19 13:17:36;;;;;;;;;;;;;;;;;;5095318;28;20011;-73
2023/07/19 13:20:08;;;;;;;;;;;;;;;;;;5094601;28;20010;-71
2023/07/19 13:22:35;;;;;;;;;;;;;;;;;;5092043;28;19923;-71
2023/07/19 13:25:03;;;;;;;;;;;;;;;;;;5078078;28;19931;-72
2023/07/19 13:27:30;;;;;;;;;;;;;;;;;;5095054;28;20018;-72
2023/07/19 13:29:57;;;;;;;;;;;;;;;;;;5095169;28;20010;-72
2023/07/19 13:32:24;;;;;;;;;;;;;;;;;;5094950;28;20015;-72
2023/07/19 13:34:51;;;;;;;;;;;;;;;;;;5091109;28;19932;-72
2023/07/19 13:37:18;;;;;;;;;;;;;;;;;;5074791;28;19928;-72
2023/07/19 13:39:45;;;;;;;;;;;;;;;;;;5075153;28;20391;-72
2023/07/19 13:42:12;;;;;;;;;;;;;;;;;;5087497;28;19943;-72
2023/07/19 13:44:39;;;;;;;;;;;;;;;;;;5094540;28;20022;-71
2023/07/19 13:47:06;;;;;;;;;;;;;;;;;;5094423;28;20470;-72
2023/07/19 13:49:33;;;;;;;;;;;;;;;;;;5084712;28;19961;-72
2023/07/19 13:52:00;;;;;;;;;;;;;;;;;;5074649;28;19963;-71
2023/07/19 13:54:27;;;;;;;;;;;;;;;;;;5082880;28;20375;-71
2023/07/19 13:56:54;;;;;;;;;;;;;;;;;;5089406;28;19932;-71
2023/07/19 13:59:21;;;;;;;;;;;;;;;;;;5083059;28;20030;-72
2023/07/19 14:01:48;;;;;;;;;;;;;;;;;;5094150;28;19967;-72
2023/07/19 14:04:15;;;;;;;;;;;;;;;;;;5094413;28;19928;-71
2023/07/19 14:06:42;;;;;;;;;;;;;;;;;;5092714;28;20015;-72
2023/07/19 14:09:09;;;;;;;;;;;;;;;;;;5092678;28;20348;-72
2023/07/19 14:11:36;;;;;;;;;;;;;;;;;;5089676;28;20003;-72
2023/07/19 14:14:03;;;;;;;;;;;;;;;;;;5080134;28;19924;-71
2023/07/19 14:16:30;;;;;;;;;;;;;;;;;;5073520;28;19925;-71
2023/07/19 14:18:57;;;;;;;;;;;;;;;;;;5083939;28;19986;-72
2023/07/19 14:21:24;;;;;;;;;;;;;;;;;;5089275;28;20268;-72
2023/07/19 14:23:51;;;;;;;;;;;;;;;;;;5092906;28;19971;-72
2023/07/19 14:26:18;;;;;;;;;;;;;;;;;;5093967;28;20015;-72
2023/07/19 14:28:45;;;;;;;;;;;;;;;;;;5094075;28;20295;-71
2023/07/19 14:31:12;;;;;;;;;;;;;;;;;;5093735;28;19959;-73
2023/07/19 14:33:39;;;;;;;;;;;;;;;;;;5094246;28;19975;-71
2023/07/19 14:36:06;;;;;;;;;;;;;;;;;;5094259;28;19963;-72
2023/07/19 14:38:33;;;;;;;;;;;;;;;;;;5093723;28;20011;-71
2023/07/19 14:41:00;;;;;;;;;;;;;;;;;;5093807;28;20367;-71
2023/07/19 14:43:27;;;;;;;;;;;;;;;;;;5093875;28;19971;-72
2023/07/19 14:45:54;;;;;;;;;;;;;;;;;;5092649;28;20050;-71
2023/07/19 14:48:23;;;;;;;;;;;;;;;;;;5084969;28;20001;-71
2023/07/19 14:50:50;;;;;;;;;;;;;;;;;;5073100;28;19931;-72
2023/07/19 14:53:17;;;;;;;;;;;;;;;;;;5072769;28;20018;-71
2023/07/19 14:55:44;;;;;;;;;;;;;;;;;;5072948;28;19970;-72
2023/07/19 14:58:11;;;;;;;;;;;;;;;;;;5073668;28;20007;-72
2023/07/19 15:00:38;;;;;;;;;;;;;;;;;;5080717;28;19924;-72
2023/07/19 15:03:05;;;;;;;;;;;;;;;;;;5093454;28;19971;-72
2023/07/19 15:05:32;;;;;;;;;;;;;;;;;;5092032;28;19924;-76
2023/07/19 15:07:59;;;;;;;;;;;;;;;;;;5093266;28;19924;-76
2023/07/19 15:10:26;;;;;;;;;;;;;;;;;;5093250;28;19942;-76
2023/07/19 15:12:53;;;;;;;;;;;;;;;;;;5093407;28;20014;-76
2023/07/19 15:15:20;;;;;;;;;;;;;;;;;;5093373;28;19987;-76
2023/07/19 15:17:47;;;;;;;;;;;;;;;;;;5085507;28;19931;-71
2023/07/19 15:20:14;;;;;;;;;;;;;;;;;;5092702;28;19924;-70
2023/07/19 15:22:41;;;;;;;;;;;;;;;;;;5092284;28;19924;-70
2023/07/19 15:25:09;;;;;;;;;;;;;;;;;;5092787;28;19932;-71
2023/07/19 15:27:36;;;;;;;;;;;;;;;;;;5092660;28;20023;-71
2023/07/19 15:30:05;;;;;;;;;;;;;;;;;;5092277;28;20471;-71
2023/07/19 15:32:32;;;;;;;;;;;;;;;;;;5092712;28;19928;-71
2023/07/19 15:34:58;;;;;;;;;;;;;;;;;;5093213;28;20003;-71
2023/07/19 15:37:25;;;;;;;;;;;;;;;;;;5092682;28;20015;-71
2023/07/19 15:39:52;;;;;;;;;;;;;;;;;;5091597;28;19924;-71
2023/07/19 15:42:19;;;;;;;;;;;;;;;;;;5092767;28;19956;-71
2023/07/19 15:44:46;;;;;;;;;;;;;;;;;;5092916;28;19924;-71
2023/07/19 15:47:13;;;;;;;;;;;;;;;;;;5092193;28;20014;-72
2023/07/19 15:49:40;;;;;;;;;;;;;;;;;;5092716;28;19924;-72
2023/07/19 15:52:07;;;;;;;;;;;;;;;;;;5093046;28;20015;-72
2023/07/19 15:54:34;;;;;;;;;;;;;;;;;;5092529;28;19924;-72
2023/07/19 15:57:01;;;;;;;;;;;;;;;;;;5086529;28;19935;-72
2023/07/19 15:59:28;;;;;;;;;;;;;;;;;;5092230;28;20403;-72
2023/07/19 16:01:56;;;;;;;;;;;;;;;;;;5092316;28;20359;-73
2023/07/19 16:04:23;;;;;;;;;;;;;;;;;;5092627;28;19963;-72
2023/07/19 16:06:50;;;;;;;;;;;;;;;;;;5092082;28;20014;-72
2023/07/19 16:09:17;;;;;;;;;;;;;;;;;;5092594;28;20448;-73
2023/07/19 16:11:44;;;;;;;;;;;;;;;;;;5091344;28;20393;-72
2023/07/19 16:14:11;;;;;;;;;;;;;;;;;;5091122;28;20213;-72
2023/07/19 16:16:38;;;;;;;;;;;;;;;;;;5092568;28;20018;-72
2023/07/19 16:19:05;;;;;;;;;;;;;;;;;;5096259;28;20035;-72
2023/07/19 16:21:32;;;;;;;;;;;;;;;;;;5096425;28;20015;-72
2023/07/19 16:23:59;;;;;;;;;;;;;;;;;;5096215;28;20442;-69
2023/07/19 16:26:26;;;;;;;;;;;;;;;;;;5096431;28;19928;-72
2023/07/19 16:28:53;;;;;;;;;;;;;;;;;;5096473;28;20015;-72
2023/07/19 16:31:20;;;;;;;;;;;;;;;;;;5079692;28;20007;-72
2023/07/19 16:33:47;;;;;;;;;;;;;;;;;;5076036;28;19928;-72
2023/07/19 16:36:14;;;;;;;;;;;;;;;;;;5076253;28;19931;-72
2023/07/19 16:38:41;;;;;;;;;;;;;;;;;;5076600;28;20342;-71
2023/07/19 16:41:08;;;;;;;;;;;;;;;;;;5075541;28;20062;-72
2023/07/19 16:43:34;;;;;;;;;;;;;;;;;;5075103;28;19978;-73